createdAt,value
2018-06-17T00:00:22.819Z,6.03
2018-06-17T00:02:54.029Z,6.10
2018-06-17T00:05:24.788Z,5.73
2018-06-17T00:07:57.120Z,6.00
2018-06-17T00:10:28.936Z,6.00
2018-06-17T00:13:03.600Z,6.27
2018-06-17T00:15:34.213Z,6.43
2018-06-17T00:18:04.945Z,5.87
2018-06-17T00:20:39.130Z,5.80
2018-06-17T00:23:11.655Z,5.33
2018-06-17T00:25:41.914Z,4.97
2018-06-17T00:28:19.505Z,5.77
2018-06-17T00:30:59.639Z,6.47
2018-06-17T00:33:32.885Z,5.10
2018-06-17T00:36:04.253Z,5.67
2018-06-17T00:38:43.780Z,5.60
2018-06-17T00:41:22.795Z,5.50
2018-06-17T00:43:54.657Z,5.07
2018-06-17T00:46:27.704Z,5.73
2018-06-17T00:48:59.828Z,5.50
2018-06-17T00:51:31.223Z,5.50
2018-06-17T00:54:02.764Z,5.10
2018-06-17T00:56:36.836Z,5.97
2018-06-17T00:59:08.677Z,5.67
2018-06-17T01:01:40.116Z,5.83
2018-06-17T01:04:10.942Z,5.60
2018-06-17T01:06:42.409Z,5.53
2018-06-17T01:09:14.666Z,5.03
2018-06-17T01:11:45.336Z,5.67
2018-06-17T01:14:16.974Z,5.43
2018-06-17T01:16:48.300Z,5.23
2018-06-17T01:19:19.984Z,5.50
2018-06-17T01:21:51.265Z,5.83
2018-06-17T01:24:23.048Z,5.00
2018-06-17T01:26:54.912Z,5.30
2018-06-17T01:29:25.301Z,5.73
2018-06-17T01:31:56.477Z,5.07
2018-06-17T01:34:30.513Z,5.83
2018-06-17T01:37:01.354Z,5.67
2018-06-17T01:39:30.936Z,5.37
2018-06-17T01:42:00.415Z,5.67
2018-06-17T01:44:30.611Z,5.47
2018-06-17T01:47:00.291Z,4.90
2018-06-17T01:49:30.021Z,5.23
2018-06-17T01:51:59.995Z,4.90
2018-06-17T01:54:30.450Z,4.80
2018-06-17T01:56:59.747Z,5.03
2018-06-17T01:59:40.641Z,5.03
2018-06-17T02:02:09.866Z,4.80
2018-06-17T02:05:43.737Z,5.10
2018-06-17T02:08:18.092Z,5.03
2018-06-17T02:10:52.595Z,5.50
2018-06-17T02:13:23.295Z,5.53
2018-06-17T02:15:58.263Z,5.40
2018-06-17T02:18:28.991Z,5.40
2018-06-17T02:21:00.654Z,5.67
2018-06-17T02:23:30.591Z,5.67
2018-06-17T02:26:02.699Z,5.03
2018-06-17T02:28:33.783Z,4.97
2018-06-17T02:31:05.651Z,4.97
2018-06-17T02:33:37.331Z,4.27
2018-06-17T02:36:19.321Z,5.30
2018-06-17T02:38:51.444Z,5.17
2018-06-17T02:41:25.608Z,4.73
2018-06-17T02:43:56.164Z,5.30
2018-06-17T02:46:31.894Z,5.30
2018-06-17T02:49:38.073Z,4.93
2018-06-17T02:52:14.599Z,5.07
2018-06-17T02:54:46.434Z,5.10
2018-06-17T02:57:19.046Z,5.50
2018-06-17T02:59:48.444Z,4.80
2018-06-17T03:02:18.556Z,5.00
2018-06-17T03:04:48.381Z,4.87
2018-06-17T03:07:28.693Z,4.70
2018-06-17T03:09:59.288Z,4.93
2018-06-17T03:12:29.840Z,4.63
2018-06-17T03:15:01.132Z,4.50
2018-06-17T03:17:31.613Z,5.23
2018-06-17T03:20:02.957Z,5.20
2018-06-17T03:22:34.735Z,4.63
2018-06-17T03:25:11.449Z,5.03
2018-06-17T03:27:46.279Z,5.37
2018-06-17T03:30:21.049Z,4.80
2018-06-17T03:32:56.216Z,4.87
2018-06-17T03:35:31.856Z,5.00
2018-06-17T03:38:01.643Z,4.83
2018-06-17T03:40:41.705Z,4.97
2018-06-17T03:43:11.208Z,5.17
2018-06-17T03:45:40.718Z,4.43
2018-06-17T03:48:11.207Z,4.87
2018-06-17T03:50:43.323Z,4.80
2018-06-17T03:53:13.856Z,4.70
2018-06-17T03:55:48.161Z,4.83
2018-06-17T03:58:25.459Z,4.80
2018-06-17T04:01:00.762Z,5.33
2018-06-17T04:03:35.598Z,4.30
2018-06-17T04:06:09.810Z,4.33
2018-06-17T04:08:46.258Z,4.67
2018-06-17T04:11:23.644Z,4.97
2018-06-17T04:14:01.513Z,4.40
2018-06-17T04:16:32.201Z,4.80
2018-06-17T04:19:01.676Z,4.87
2018-06-17T04:21:41.139Z,4.63
2018-06-17T04:24:22.055Z,4.37
2018-06-17T04:26:56.511Z,5.13
2018-06-17T04:29:29.001Z,5.20
2018-06-17T04:32:06.358Z,4.43
2018-06-17T04:34:41.114Z,4.20
2018-06-17T04:37:16.836Z,4.53
2018-06-17T04:39:51.666Z,4.40
2018-06-17T04:42:30.984Z,4.10
2018-06-17T04:45:04.571Z,4.03
2018-06-17T04:47:44.852Z,4.33
2018-06-17T04:50:23.145Z,3.87
2018-06-17T04:52:58.648Z,4.07
2018-06-17T04:55:33.003Z,4.20
2018-06-17T04:58:06.158Z,4.03
2018-06-17T05:00:40.575Z,3.67
2018-06-17T05:03:13.457Z,3.93
2018-06-17T05:05:47.839Z,3.80
2018-06-17T05:08:24.088Z,4.00
2018-06-17T05:10:58.105Z,3.80
2018-06-17T05:13:34.059Z,3.83
2018-06-17T05:16:03.293Z,4.43
2018-06-17T05:18:32.459Z,4.33
2018-06-17T05:21:02.552Z,4.23
2018-06-17T05:23:32.547Z,4.60
2018-06-17T05:26:01.525Z,4.17
2018-06-17T05:28:30.664Z,4.07
2018-06-17T05:30:59.661Z,4.20
2018-06-17T05:33:28.709Z,4.53
2018-06-17T05:35:57.732Z,4.80
2018-06-17T05:38:26.994Z,4.20
2018-06-17T05:40:55.959Z,4.37
2018-06-17T05:43:25.107Z,4.90
2018-06-17T05:45:54.191Z,4.40
2018-06-17T05:48:23.171Z,4.50
2018-06-17T05:50:59.105Z,4.53
2018-06-17T05:53:33.699Z,4.57
2018-06-17T05:56:15.177Z,4.80
2018-06-17T05:58:56.919Z,4.33
2018-06-17T06:01:29.616Z,5.83
2018-06-17T06:03:58.593Z,4.80
2018-06-17T06:06:27.048Z,4.67
2018-06-17T06:08:56.094Z,4.50
2018-06-17T06:11:25.234Z,4.50
2018-06-17T06:13:54.423Z,4.20
2018-06-17T06:16:23.407Z,3.70
2018-06-17T06:18:52.654Z,4.33
2018-06-17T06:21:21.984Z,4.27
2018-06-17T06:23:51.355Z,4.20
2018-06-17T06:26:20.463Z,4.43
2018-06-17T06:28:49.481Z,4.10
2018-06-17T06:31:18.454Z,4.10
2018-06-17T06:33:49.104Z,3.60
2018-06-17T06:36:30.707Z,3.73
2018-06-17T06:39:09.285Z,4.03
2018-06-17T06:41:38.672Z,3.83
2018-06-17T06:44:07.813Z,3.70
2018-06-17T06:46:36.794Z,3.90
2018-06-17T06:49:10.020Z,4.07
2018-06-17T06:51:46.299Z,3.80
2018-06-17T06:54:25.949Z,3.60
2018-06-17T06:57:02.242Z,3.87
2018-06-17T06:59:36.943Z,3.80
2018-06-17T07:05:10.463Z,3.77
2018-06-17T07:07:59.398Z,3.90
2018-06-17T07:10:38.994Z,3.83
2018-06-17T07:13:17.554Z,3.90
2018-06-17T07:16:00.316Z,3.80
2018-06-17T07:18:41.205Z,3.80
2018-06-17T07:21:14.814Z,3.80
2018-06-17T07:23:47.562Z,4.00
2018-06-17T07:26:32.462Z,3.87
2018-06-17T07:29:13.717Z,4.03
2018-06-17T07:31:46.727Z,3.83
2018-06-17T07:34:20.179Z,5.23
2018-06-17T07:36:53.085Z,4.10
2018-06-17T07:40:31.460Z,3.40
2018-06-17T07:43:04.800Z,3.50
2018-06-17T07:45:36.467Z,4.03
2018-06-17T07:48:11.452Z,4.10
2018-06-17T07:50:53.805Z,4.13
2018-06-17T07:53:26.418Z,4.03
2018-06-17T07:55:59.149Z,3.80
2018-06-17T07:58:30.152Z,3.90
2018-06-17T08:01:03.798Z,3.93
2018-06-17T08:03:37.824Z,4.00
2018-06-17T08:06:14.295Z,3.93
2018-06-17T08:08:50.938Z,4.43
2018-06-17T08:11:30.386Z,4.10
2018-06-17T08:14:03.994Z,4.20
2018-06-17T08:16:38.228Z,4.43
2018-06-17T08:19:12.405Z,4.37
2018-06-17T08:21:46.213Z,3.93
2018-06-17T08:24:18.900Z,3.53
2018-06-17T08:26:53.090Z,4.20
2018-06-17T08:29:29.883Z,4.07
2018-06-17T08:32:00.930Z,4.30
2018-06-17T08:34:32.989Z,3.97
2018-06-17T08:37:07.231Z,4.27
2018-06-17T08:39:40.629Z,4.40
2018-06-17T08:42:12.238Z,4.20
2018-06-17T08:44:48.101Z,4.00
2018-06-17T08:47:24.239Z,4.20
2018-06-17T08:49:56.218Z,4.00
2018-06-17T08:52:28.096Z,4.10
2018-06-17T08:55:02.845Z,4.40
2018-06-17T08:57:36.022Z,4.30
2018-06-17T09:00:15.250Z,4.47
2018-06-17T09:02:47.521Z,4.40
2018-06-17T09:05:19.487Z,4.40
2018-06-17T09:07:51.055Z,3.80
2018-06-17T09:10:20.898Z,4.40
2018-06-17T09:12:53.208Z,3.90
2018-06-17T09:15:24.140Z,4.23
2018-06-17T09:17:54.485Z,4.57
2018-06-17T09:20:25.217Z,4.63
2018-06-17T09:22:56.029Z,4.47
2018-06-17T09:25:26.879Z,4.20
2018-06-17T09:27:57.481Z,4.40
2018-06-17T09:30:27.928Z,4.43
2018-06-17T09:32:59.241Z,3.07
2018-06-17T09:35:29.519Z,3.23
2018-06-17T09:38:03.602Z,3.17
2018-06-17T09:40:34.369Z,3.67
2018-06-17T09:43:07.108Z,4.23
2018-06-17T09:45:37.655Z,4.43
2018-06-17T09:48:10.199Z,2.80
2018-06-17T09:50:41.920Z,3.33
2018-06-17T09:53:14.259Z,2.97
2018-06-17T09:55:45.979Z,3.10
2018-06-17T09:58:21.244Z,2.70
2018-06-17T10:00:50.382Z,3.03
2018-06-17T10:03:19.372Z,3.03
2018-06-17T10:05:51.600Z,2.50
2018-06-17T10:08:29.536Z,2.83
2018-06-17T10:11:11.590Z,3.33
2018-06-17T10:13:47.802Z,2.87
2018-06-17T10:16:20.566Z,2.73
2018-06-17T10:18:51.181Z,3.23
2018-06-17T10:21:22.634Z,3.10
2018-06-17T10:23:58.157Z,2.70
2018-06-17T10:26:34.754Z,2.80
2018-06-17T10:29:04.314Z,3.23
2018-06-17T10:31:36.649Z,3.23
2018-06-17T10:34:05.856Z,2.97
2018-06-17T10:36:38.982Z,2.73
2018-06-17T10:39:08.849Z,2.90
2018-06-17T10:41:39.089Z,3.03
2018-06-17T10:44:11.867Z,2.90
2018-06-17T10:46:41.187Z,2.73
2018-06-17T10:49:12.951Z,2.87
2018-06-17T10:51:54.567Z,3.07
2018-06-17T10:54:32.889Z,3.07
2018-06-17T10:57:13.589Z,2.70
2018-06-17T10:59:49.527Z,3.10
2018-06-17T11:02:23.116Z,2.97
2018-06-17T11:04:58.071Z,3.20
2018-06-17T11:07:27.088Z,3.13
2018-06-17T11:09:56.157Z,2.77
2018-06-17T11:12:25.286Z,3.43
2018-06-17T11:14:54.351Z,3.07
2018-06-17T11:17:34.640Z,3.13
2018-06-17T11:20:04.700Z,3.50
2018-06-17T11:22:34.998Z,3.23
2018-06-17T11:25:16.733Z,3.30
2018-06-17T11:27:54.653Z,3.30
2018-06-17T11:30:25.991Z,3.00
2018-06-17T11:32:56.466Z,3.00
2018-06-17T11:35:27.521Z,3.30
2018-06-17T11:37:59.797Z,2.90
2018-06-17T11:40:37.159Z,3.00
2018-06-17T11:43:15.379Z,3.20
2018-06-17T11:45:48.276Z,2.80
2018-06-17T11:48:28.530Z,3.30
2018-06-17T11:50:59.168Z,2.93
2018-06-17T11:53:28.576Z,3.23
2018-06-17T11:55:57.835Z,3.10
2018-06-17T11:58:28.176Z,3.20
2018-06-17T12:01:02.527Z,3.10
2018-06-17T12:03:36.459Z,2.83
2018-06-17T12:06:10.878Z,3.20
2018-06-17T12:08:40.797Z,2.70
2018-06-17T12:11:15.292Z,3.47
2018-06-17T12:13:51.590Z,3.10
2018-06-17T12:16:29.713Z,3.00
2018-06-17T12:19:01.711Z,3.60
2018-06-17T12:21:30.952Z,3.17
2018-06-17T12:24:00.053Z,3.57
2018-06-17T12:26:29.447Z,3.03
2018-06-17T12:28:58.516Z,2.23
2018-06-17T12:31:28.917Z,3.03
2018-06-17T12:34:02.689Z,2.47
2018-06-17T12:36:31.950Z,2.80
2018-06-17T12:39:01.151Z,2.80
2018-06-17T12:44:07.334Z,2.47
2018-06-17T12:46:36.356Z,2.80
2018-06-17T12:49:06.394Z,2.73
2018-06-17T12:51:42.148Z,3.80
2018-06-17T12:54:11.496Z,3.40
2018-06-17T12:56:40.744Z,3.60
2018-06-17T12:59:09.870Z,3.73
2018-06-17T13:01:39.115Z,3.10
2018-06-17T13:04:08.341Z,3.60
2018-06-17T13:06:41.727Z,3.93
2018-06-17T13:09:13.998Z,3.47
2018-06-17T13:11:44.374Z,3.73
2018-06-17T13:14:13.056Z,3.00
2018-06-17T13:16:42.819Z,3.00
2018-06-17T13:19:11.736Z,3.10
2018-06-17T13:21:40.959Z,3.87
2018-06-17T13:24:16.658Z,3.07
2018-06-17T13:26:48.442Z,3.27
2018-06-17T13:29:17.718Z,2.90
2018-06-17T13:31:46.882Z,3.33
2018-06-17T13:34:16.028Z,3.00
2018-06-17T13:36:45.523Z,3.30
2018-06-17T13:39:14.736Z,3.70
2018-06-17T13:41:43.909Z,3.40
2018-06-17T13:44:13.166Z,3.13
2018-06-17T13:46:42.208Z,3.17
2018-06-17T13:49:11.338Z,2.90
2018-06-17T13:51:40.395Z,3.50
2018-06-17T13:54:15.129Z,3.60
2018-06-17T13:56:44.236Z,3.20
2018-06-17T13:59:13.306Z,3.67
2018-06-17T14:01:42.209Z,3.00
2018-06-17T14:04:11.269Z,3.33
2018-06-17T14:06:40.386Z,3.30
2018-06-17T14:09:10.380Z,2.93
2018-06-17T14:11:39.643Z,3.40
2018-06-17T14:14:08.201Z,2.93
2018-06-17T14:16:36.999Z,3.30
2018-06-17T14:19:05.973Z,2.60
2018-06-17T14:21:34.948Z,2.87
2018-06-17T14:24:04.161Z,3.10
2018-06-17T14:26:33.160Z,3.77
2018-06-17T14:29:02.412Z,3.30
2018-06-17T14:31:35.863Z,3.50
2018-06-17T14:34:09.074Z,2.73
2018-06-17T14:36:37.820Z,3.00
2018-06-17T14:39:10.514Z,2.77
2018-06-17T14:41:39.533Z,2.80
2018-06-17T14:44:13.670Z,2.50
2018-06-17T14:46:47.806Z,3.13
2018-06-17T14:49:21.802Z,2.90
2018-06-17T14:51:55.917Z,2.70
2018-06-17T14:54:25.639Z,2.80
2018-06-17T14:56:54.597Z,2.90
2018-06-17T14:59:23.940Z,2.90
2018-06-17T15:01:53.137Z,2.67
2018-06-17T15:04:22.303Z,3.27
2018-06-17T15:06:51.311Z,2.97
2018-06-17T15:09:20.246Z,3.00
2018-06-17T15:11:49.452Z,2.77
2018-06-17T15:14:18.399Z,2.93
2018-06-17T15:16:47.446Z,2.97
2018-06-17T15:19:15.954Z,3.37
2018-06-17T15:21:45.017Z,2.70
2018-06-17T15:24:14.196Z,2.93
2018-06-17T15:26:43.267Z,3.33
2018-06-17T15:29:12.204Z,2.93
2018-06-17T15:31:46.403Z,3.00
2018-06-17T15:36:23.501Z,3.13
2018-06-17T15:38:54.235Z,3.13
2018-06-17T15:41:28.498Z,3.00
2018-06-17T15:43:58.928Z,3.03
2018-06-17T15:46:33.792Z,3.03
2018-06-17T15:49:02.951Z,2.97
2018-06-17T15:51:32.233Z,2.90
2018-06-17T15:54:02.325Z,2.60
2018-06-17T15:56:31.684Z,2.97
2018-06-17T15:59:03.020Z,2.77
2018-06-17T16:01:32.208Z,2.20
2018-06-17T16:04:01.229Z,2.10
2018-06-17T16:06:30.254Z,2.50
2018-06-17T16:08:59.234Z,2.30
2018-06-17T16:11:28.256Z,1.80
2018-06-17T16:14:02.407Z,2.13
2018-06-17T16:18:40.669Z,1.57
2018-06-17T16:21:10.177Z,2.10
2018-06-17T16:23:39.223Z,2.03
2018-06-17T16:26:08.180Z,1.90
2018-06-17T16:28:36.780Z,2.03
2018-06-17T16:31:05.760Z,1.90
2018-06-17T16:33:34.309Z,2.07
2018-06-17T16:36:03.379Z,1.90
2018-06-17T16:38:33.238Z,2.13
2018-06-17T16:41:02.214Z,2.20
2018-06-17T16:43:31.165Z,2.07
2018-06-17T16:46:01.415Z,1.90
2018-06-17T16:48:30.384Z,2.17
2018-06-17T16:51:04.561Z,2.20
2018-06-17T16:53:38.627Z,2.53
2018-06-17T16:56:14.566Z,1.83
2018-06-17T16:58:50.387Z,2.00
2018-06-17T17:01:19.264Z,1.90
2018-06-17T17:03:48.197Z,2.00
2018-06-17T17:06:17.087Z,2.20
2018-06-17T17:08:46.004Z,2.00
2018-06-17T17:11:14.821Z,2.43
2018-06-17T17:13:43.359Z,2.20
2018-06-17T17:16:11.951Z,2.00
2018-06-17T17:18:40.882Z,2.10
2018-06-17T17:21:12.201Z,2.77
2018-06-17T17:23:52.938Z,2.27
2018-06-17T17:26:29.646Z,2.27
2018-06-17T17:28:58.789Z,2.23
2018-06-17T17:31:32.958Z,2.10
2018-06-17T17:34:11.506Z,2.33
2018-06-17T17:36:45.798Z,2.30
2018-06-17T17:39:27.976Z,2.73
2018-06-17T17:42:02.245Z,2.00
2018-06-17T17:44:35.382Z,2.43
2018-06-17T17:47:09.350Z,2.33
2018-06-17T17:49:38.196Z,2.07
2018-06-17T17:52:07.118Z,2.13
2018-06-17T17:54:36.142Z,2.53
2018-06-17T17:57:05.113Z,2.50
2018-06-17T17:59:34.182Z,2.13
2018-06-17T18:02:03.194Z,2.10
2018-06-17T18:04:32.228Z,2.17
2018-06-17T18:07:01.547Z,2.00
2018-06-17T18:09:35.058Z,2.20
2018-06-17T18:12:04.339Z,2.40
2018-06-17T18:14:41.393Z,2.00
2018-06-17T18:17:12.630Z,2.80
2018-06-17T18:19:41.646Z,2.77
2018-06-17T18:22:10.661Z,2.50
2018-06-17T18:24:40.478Z,2.40
2018-06-17T18:27:14.749Z,2.20
2018-06-17T18:29:48.798Z,1.87
2018-06-17T18:32:22.957Z,2.17
2018-06-17T18:34:57.084Z,2.40
2018-06-17T18:37:26.212Z,2.33
2018-06-17T18:39:55.195Z,1.80
2018-06-17T18:42:24.150Z,2.00
2018-06-17T18:44:53.178Z,1.97
2018-06-17T18:47:21.759Z,2.03
2018-06-17T18:49:54.314Z,2.27
2018-06-17T18:52:31.943Z,2.33
2018-06-17T18:55:00.907Z,2.70
2018-06-17T18:57:29.899Z,1.90
2018-06-17T19:00:03.137Z,2.40
2018-06-17T19:02:32.111Z,2.20
2018-06-17T19:05:01.152Z,2.10
2018-06-17T19:07:30.183Z,2.27
2018-06-17T19:10:06.878Z,2.20
2018-06-17T19:12:41.113Z,2.17
2018-06-17T19:15:15.423Z,2.60
2018-06-17T19:17:49.524Z,2.10
2018-06-17T19:20:26.429Z,2.17
2018-06-17T19:22:55.586Z,2.23
2018-06-17T19:25:24.586Z,2.67
2018-06-17T19:28:06.548Z,1.93
2018-06-17T19:30:49.755Z,2.10
2018-06-17T19:33:28.870Z,2.00
2018-06-17T19:36:04.986Z,2.30
2018-06-17T19:38:44.048Z,2.10
2018-06-17T19:41:25.779Z,2.50
2018-06-17T19:44:00.389Z,2.40
2018-06-17T19:46:39.976Z,2.70
2018-06-17T19:49:09.332Z,2.53
2018-06-17T19:51:43.613Z,2.47
2018-06-17T19:54:20.508Z,2.37
2018-06-17T19:56:57.581Z,2.50
2018-06-17T19:59:42.355Z,2.57
2018-06-17T20:02:11.571Z,2.27
2018-06-17T20:04:43.298Z,2.57
2018-06-17T20:07:18.309Z,2.20
2018-06-17T20:09:52.663Z,2.50
2018-06-17T20:12:28.980Z,2.40
2018-06-17T20:15:04.030Z,2.20
2018-06-17T20:17:37.869Z,2.50
2018-06-17T20:20:09.997Z,3.10
2018-06-17T20:22:45.976Z,3.30
2018-06-17T20:25:19.504Z,2.60
2018-06-17T20:27:48.539Z,2.50
2018-06-17T20:30:17.967Z,2.87
2018-06-17T20:32:52.358Z,2.70
2018-06-17T20:35:26.644Z,2.20
2018-06-17T20:38:00.868Z,2.30
2018-06-17T20:40:35.005Z,2.37
2018-06-17T20:43:09.289Z,1.93
2018-06-17T20:45:38.206Z,3.23
2018-06-17T20:48:07.129Z,2.70
2018-06-17T20:50:36.154Z,2.20
2018-06-17T20:53:05.102Z,2.57
2018-06-17T20:55:34.064Z,2.53
2018-06-17T20:58:03.034Z,2.57
2018-06-17T21:00:31.537Z,2.50
2018-06-17T21:03:00.523Z,2.57
2018-06-17T21:05:29.542Z,2.57
2018-06-17T21:07:58.542Z,2.43
2018-06-17T21:10:27.508Z,2.93
2018-06-17T21:12:56.450Z,2.60
2018-06-17T21:15:33.614Z,2.43
2018-06-17T21:18:04.208Z,2.53
2018-06-17T21:20:38.485Z,2.47
2018-06-17T21:23:12.692Z,2.73
2018-06-17T21:25:46.840Z,2.30
2018-06-17T21:28:15.826Z,2.50
2018-06-17T21:30:44.828Z,2.20
2018-06-17T21:33:13.788Z,2.50
2018-06-17T21:35:42.729Z,2.43
2018-06-17T21:38:12.002Z,2.17
2018-06-17T21:40:41.123Z,2.47
2018-06-17T21:43:10.174Z,2.50
2018-06-17T21:45:38.958Z,2.27
2018-06-17T21:48:07.938Z,2.50
2018-06-17T21:50:36.957Z,2.40
2018-06-17T21:53:06.023Z,2.57
2018-06-17T21:55:37.109Z,2.33
2018-06-17T21:58:10.820Z,2.13
2018-06-17T22:00:44.209Z,2.47
2018-06-17T22:03:13.116Z,2.37
2018-06-17T22:05:47.140Z,2.10
2018-06-17T22:08:23.869Z,2.10
2018-06-17T22:10:59.956Z,2.70
2018-06-17T22:13:35.763Z,2.23
2018-06-17T22:16:12.128Z,2.97
2018-06-17T22:21:26.958Z,2.53
2018-06-17T22:23:55.940Z,2.83
2018-06-17T22:26:24.934Z,2.37
2018-06-17T22:28:54.073Z,2.63
2018-06-17T22:31:23.050Z,2.77
2018-06-17T22:33:52.041Z,2.70
2018-06-17T22:36:20.941Z,3.13
2018-06-17T22:38:55.669Z,3.00
2018-06-17T22:41:29.611Z,3.00
2018-06-17T22:44:00.878Z,3.07
2018-06-17T22:46:33.478Z,3.13
2018-06-17T22:49:09.237Z,3.63
2018-06-17T22:51:41.685Z,3.00
2018-06-17T22:54:21.564Z,2.80
2018-06-17T22:56:55.646Z,3.03
2018-06-17T22:59:29.726Z,2.97
2018-06-17T23:02:03.790Z,2.80
2018-06-17T23:04:37.893Z,3.00
2018-06-17T23:07:17.046Z,3.37
2018-06-17T23:09:50.088Z,3.40
2018-06-17T23:12:22.788Z,3.27
2018-06-17T23:14:57.082Z,3.00
2018-06-17T23:17:30.126Z,2.87
2018-06-17T23:20:02.429Z,3.20
2018-06-17T23:22:35.406Z,3.07
2018-06-17T23:25:09.123Z,2.97
2018-06-17T23:27:38.386Z,3.07
2018-06-17T23:30:11.681Z,2.90
2018-06-17T23:32:45.264Z,3.50
2018-06-17T23:35:17.468Z,3.30
2018-06-17T23:37:50.945Z,3.50
2018-06-17T23:40:21.411Z,3.23
2018-06-17T23:42:50.427Z,2.87
2018-06-17T23:45:19.354Z,3.30
2018-06-17T23:47:53.533Z,3.30
2018-06-17T23:50:27.557Z,3.07
2018-06-17T23:53:01.764Z,3.30
2018-06-17T23:55:35.863Z,2.83
2018-06-17T23:58:07.376Z,3.30
